Latest Weather Observations for Parawa West

IDS60801

Issued at 7:31 pm CST Tuesday 1 September 2015 (issued every 30 minutes, with the page automatically refreshed every 10 minutes)

About weather observations | Map of weather stations | Latest weather observations for SA | Other Formats
Station Details ID: 023875 Name: SECOND VALLEY FOREST AWS Lat: -35.57 Lon: 138.29 Height: 341.0 m
Data from the previous 72 hours. | See also: Recent months at Parawa West
Date/Time
CST
Temp
°C
App
Temp
°C
Dew
Point
Rel
Hum
%
Delta-T
°C
Wind Press
QNH
hPa
Press
MSL
hPa
Rain
since 9 am
mm
Dir
 
Spd
km/h
Gust
km/h
Spd
kts
Gust
kts
01/07:30pm 10.5 9.8 6.8 78 1.8 CALM 0 0 0 0 1006.9 1006.9 1.8
01/07:00pm 10.2 9.5 7.1 81 1.5 CALM 0 4 0 2 1007.0 1007.0 1.8
01/06:30pm 10.8 8.9 6.9 77 1.9 WNW 6 20 3 11 1007.5 1007.5 1.8
01/06:00pm 11.7 10.2 6.6 71 2.5 ENE 4 13 2 7 1007.4 1007.4 1.2
01/05:30pm 11.4 10.1 7.5 77 1.9 N 4 9 2 5 1007.3 1007.3 1.2
01/05:00pm 11.2 9.8 7.1 76 2.0 SSE 4 17 2 9 1007.5 1007.5 1.0
01/04:30pm 10.9 8.9 7.2 78 1.8 NW 7 13 4 7 1007.9 1007.9 0.8
01/04:00pm 11.4 8.9 6.7 73 2.3 NW 9 20 5 11 1008.2 1008.1 0.6
01/03:30pm 12.4 10.5 6.9 69 2.7 NNW 6 13 3 7 1008.4 1008.3 0.2
01/03:00pm 13.6 11.2 5.3 57 4.0 WNW 7 19 4 10 1008.7 1008.6 0.0
01/02:30pm 13.9 11.4 4.8 54 4.3 NNE 7 17 4 9 1009.0 1008.9 0.0
01/02:00pm 14.2 11.7 4.8 53 4.5 NW 7 15 4 8 1009.0 1008.9 0.0
01/01:30pm 14.1 12.0 6.0 58 3.9 N 6 15 3 8 1009.2 1009.1 0.0
01/01:00pm 14.1 11.7 4.4 52 4.6 WNW 6 13 3 7 1009.6 1009.6 0.0
01/12:30pm 15.1 12.7 4.5 49 5.0 WNW 6 13 3 7 1010.2 1010.2 0.0
01/12:00pm 14.2 11.7 5.0 54 4.4 NW 7 17 4 9 1010.9 1010.9 0.0
01/11:30am 14.9 12.8 6.0 55 4.4 NW 6 13 3 7 1011.5 1011.4 0.0
01/11:00am 14.7 12.4 4.7 51 4.7 N 6 15 3 8 1011.7 1011.6 0.0
01/10:30am 15.4 13.3 5.9 53 4.7 NNW 6 13 3 7 1011.9 1011.9 0.0
01/10:00am 14.9 12.8 6.0 55 4.3 E 6 15 3 8 1012.2 1012.2 0.0
01/09:30am 14.4 12.8 6.3 58 4.0 WSW 4 11 2 6 1012.5 1012.5 0.0
01/09:00am 12.5 11.5 7.2 70 2.6 SSE 2 6 1 3 1012.5 1012.7 0.2
01/08:30am 11.1 10.5 7.6 79 1.7 CALM 0 6 0 3 1012.9 1013.1 0.2
01/08:00am 11.2 9.6 7.9 80 1.6 NNW 6 9 3 5 1013.1 1013.3 0.2
01/07:30am 11.1 8.7 7.0 76 2.0 NNW 9 15 5 8 1012.9 1013.1 0.2
01/07:00am 10.2 7.6 6.0 75 2.0 NNW 9 15 5 8 1012.8 1013.0 0.2
01/06:30am 10.7 5.7 6.3 74 2.1 NNW 22 28 12 15 1012.5 1012.7 0.0
01/06:00am 11.2 8.0 4.9 65 2.9 NW 11 17 6 9 1012.3 1012.5 0.0
01/05:30am 11.3 7.9 4.1 61 3.3 NW 11 17 6 9 1012.2 1012.4 0.0
01/05:00am 10.5 8.4 3.8 63 3.0 NNE 4 11 2 6 1011.9 1012.1 0.0
01/04:30am 10.3 8.2 3.8 64 2.9 NW 4 13 2 7 1012.0 1012.2 0.0
01/04:00am 10.6 8.4 3.6 62 3.1 SSW 4 9 2 5 1012.2 1012.4 0.0
01/03:30am 9.7 7.5 3.4 65 2.8 NE 4 9 2 5 1012.4 1012.6 0.0
01/03:00am 9.8 8.0 3.3 64 2.9 NE 2 4 1 2 1013.0 1013.2 0.0
01/02:30am 9.7 7.9 3.7 66 2.7 NE 2 4 1 2 1013.5 1013.8 0.0
01/02:00am 8.7 7.3 3.5 70 2.3 CALM 0 0 0 0 1013.8 1014.1 0.0
01/01:30am 8.8 6.2 3.4 69 2.4 NE 6 11 3 6 1014.3 1014.5 0.0
01/01:00am 9.2 6.7 3.8 69 2.4 NE 6 11 3 6 1014.6 1014.8 0.0
01/12:30am 9.7 6.7 3.9 67 2.6 NE 9 15 5 8 1014.9 1015.1 0.0
01/12:00am 9.4 6.7 3.8 68 2.5 NNE 7 13 4 7 1015.3 1015.5 0.0
 
Date/Time
CST
Temp
°C
App
Temp
°C
Dew
Point
Rel
Hum
%
Delta-T
°C
Wind Press
QNH
hPa
Press
MSL
hPa
Rain
since 9 am
mm
Dir
 
Spd
km/h
Gust
km/h
Spd
kts
Gust
kts
31/11:30pm 10.3 6.1 3.8 64 2.9 NE 15 24 8 13 1015.5 1015.7 0.0
31/11:00pm 10.4 5.8 3.7 63 3.0 NE 17 24 9 13 1015.9 1016.2 0.0
31/10:30pm 10.4 5.8 3.7 63 3.0 NE 17 28 9 15 1016.1 1016.4 0.0
31/10:00pm 10.6 6.2 4.5 66 2.8 NE 17 22 9 12 1016.3 1016.6 0.0
31/09:30pm 10.2 6.2 4.8 69 2.5 NE 15 20 8 11 1016.5 1016.8 0.0
31/09:00pm 10.2 6.1 4.6 68 2.6 NE 15 22 8 12 1016.7 1017.0 0.0
31/08:30pm 10.8 5.8 3.4 60 3.3 NE 19 24 10 13 1016.8 1017.1 0.0
31/08:00pm 10.9 6.9 3.0 58 3.5 ENE 13 15 7 8 1016.9 1017.2 0.0
31/07:30pm 10.7 7.9 2.3 56 3.7 W 6 7 3 4 1017.0 1017.3 0.0
31/07:00pm 10.9 8.5 2.0 54 3.9 WSW 4 7 2 4 1016.9 1017.2 0.0
31/06:30pm 10.4 8.8 2.3 57 3.5 CALM 0 0 0 0 1016.8 1017.1 0.0
31/06:00pm 11.5 9.9 2.5 54 4.0 CALM 0 0 0 0 1016.8 1017.1 0.0
31/05:30pm 12.6 11.5 5.1 60 3.5 CALM 0 2 0 1 1016.8 1017.1 0.0
31/05:00pm 13.4 11.7 4.0 53 4.4 WSW 2 7 1 4 1016.7 1017.0 0.0
31/04:30pm 14.1 12.0 3.8 50 4.8 NW 4 9 2 5 1016.9 1017.2 0.0
31/04:00pm 15.0 12.9 3.8 47 5.2 NNW 4 7 2 4 1017.1 1017.4 0.0
31/03:30pm 14.6 12.6 4.3 50 4.8 NNW 4 9 2 5 1017.1 1017.4 0.0
31/03:00pm 15.1 13.2 5.0 51 4.8 N 4 7 2 4 1017.4 1017.6 0.0
31/02:30pm 15.0 12.4 4.1 48 5.1 NW 7 15 4 8 1017.7 1017.9 0.0
31/02:00pm 14.5 11.7 3.3 47 5.2 NNW 7 13 4 7 1018.0 1018.2 0.0
31/01:30pm 14.8 12.2 4.2 49 5.0 NNW 7 13 4 7 1018.4 1018.7 0.0
31/01:00pm 14.0 10.9 3.5 49 4.8 NW 9 17 5 9 1018.7 1019.0 0.0
31/12:30pm 14.5 11.9 4.2 50 4.8 NNW 7 13 4 7 1019.0 1019.3 0.0
31/12:00pm 13.8 11.0 3.0 48 4.9 NNW 7 13 4 7 1019.5 1019.8 0.0
31/11:30am 13.4 10.3 3.5 51 4.5 NW 9 17 5 9 1019.9 1020.2 0.0
31/11:00am 13.2 10.6 4.1 54 4.2 NNW 7 11 4 6 1020.1 1020.4 0.0
31/10:30am 13.0 10.6 4.2 55 4.1 N 6 11 3 6 1020.1 1020.4 0.0
31/10:00am 11.9 8.9 3.9 58 3.7 NNW 9 13 5 7 1020.4 1020.6 0.0
31/09:30am 11.4 8.6 2.9 56 3.8 NW 7 15 4 8 1020.6 1020.8 0.0
31/09:00am 11.2 9.1 4.0 61 3.3 NE 4 7 2 4 1020.5 1020.7 0.0
31/08:30am 10.4 8.1 3.0 60 3.3 NE 4 7 2 4 1020.4 1020.6 0.0
31/08:00am 9.0 7.0 2.3 63 2.9 NE 2 4 1 2 1020.2 1020.5 0.0
31/07:30am 8.5 6.5 2.1 64 2.7 NE 2 6 1 3 1020.2 1020.5 0.0
31/07:00am 7.3 5.2 1.8 68 2.3 NE 2 7 1 4 1020.4 1020.6 0.0
31/06:30am 7.1 4.6 1.6 68 2.3 NE 4 6 2 3 1020.2 1020.5 0.0
31/06:00am 6.4 4.6 1.5 71 2.0 CALM 0 0 0 0 1020.1 1020.4 0.0
31/05:30am 6.5 4.8 2.0 73 1.9 CALM 0 2 0 1 1020.4 1020.6 0.0
31/05:00am 6.1 4.5 2.2 76 1.6 CALM 0 2 0 1 1020.2 1020.5 0.0
31/04:30am 5.9 4.3 2.4 78 1.5 CALM 0 2 0 1 1020.2 1020.5 0.0
31/04:00am 6.2 4.6 2.7 78 1.5 CALM 0 0 0 0 1020.4 1020.6 0.0
31/03:30am 7.0 4.3 2.9 75 1.7 NE 6 7 3 4 1020.4 1020.6 0.0
31/03:00am 6.0 4.1 3.0 81 1.3 NE 2 6 1 3 1020.6 1020.8 0.0
31/02:30am 6.0 3.3 2.8 80 1.3 ENE 6 11 3 6 1020.9 1021.2 0.0
31/02:00am 6.8 2.9 3.2 78 1.5 NE 13 19 7 10 1021.1 1021.4 0.0
31/01:30am 6.7 2.5 3.9 82 1.2 NE 15 22 8 12 1021.5 1021.8 0.0
31/01:00am 6.3 1.7 3.8 84 1.1 NE 17 22 9 12 1021.7 1022.0 0.0
31/12:30am 6.6 2.0 3.9 83 1.2 NE 17 20 9 11 1021.8 1022.1 0.0
31/12:00am 5.9 1.2 2.9 81 1.3 ENE 17 22 9 12 1021.8 1022.1 0.0
 
Date/Time
CST
Temp
°C
App
Temp
°C
Dew
Point
Rel
Hum
%
Delta-T
°C
Wind Press
QNH
hPa
Press
MSL
hPa
Rain
since 9 am
mm
Dir
 
Spd
km/h
Gust
km/h
Spd
kts
Gust
kts
30/11:30pm 6.3 2.0 3.3 81 1.3 ENE 15 17 8 9 1022.0 1022.3 0.0
30/11:00pm 6.7 2.6 4.5 86 1.0 ENE 15 19 8 10 1022.2 1022.5 0.0
30/10:30pm 6.5 2.8 4.7 88 0.8 ENE 13 17 7 9 1022.5 1022.8 0.0
30/10:00pm 6.7 3.5 4.9 88 0.8 ENE 11 17 6 9 1022.7 1023.0 0.0
30/09:30pm 6.8 3.1 4.6 86 1.0 ENE 13 17 7 9 1022.8 1023.1 0.0
30/09:00pm 6.4 2.3 4.6 88 0.8 E 15 17 8 9 1022.8 1023.1 0.0
30/08:30pm 6.5 2.1 4.7 88 0.8 ENE 17 20 9 11 1022.9 1023.2 0.0
30/08:00pm 6.4 2.4 4.7 89 0.8 E 15 19 8 10 1022.8 1023.1 0.0
30/07:30pm 6.2 2.6 4.8 91 0.6 E 13 15 7 8 1022.9 1023.2 0.0
30/07:00pm 6.2 3.3 4.7 90 0.7 ESE 9 11 5 6 1023.0 1023.3 0.0
30/06:30pm 6.5 3.9 4.3 86 1.0 SE 7 11 4 6 1023.0 1023.3 0.0
30/06:00pm 6.9 4.3 4.0 82 1.3 SSE 7 11 4 6 1022.7 1023.0 0.0
30/05:30pm 8.6 6.3 4.8 77 1.7 SSE 6 7 3 4 1022.8 1023.1 0.0
30/05:00pm 9.4 6.9 5.0 74 2.0 SSE 7 11 4 6 1022.4 1022.7 0.0
30/04:30pm 10.7 8.7 6.1 73 2.2 WNW 6 9 3 5 1022.5 1022.8 0.0
30/04:00pm 11.3 7.6 2.1 53 4.0 WNW 11 17 6 9 1022.6 1022.9 0.0
30/03:30pm 11.4 7.7 2.4 54 3.9 NW 11 19 6 10 1022.7 1023.0 0.0
30/03:00pm 11.9 8.8 3.7 57 3.7 NW 9 17 5 9 1022.8 1023.1 0.0
30/02:30pm 12.4 9.8 4.4 58 3.7 NW 7 13 4 7 1022.9 1023.2 0.0
30/02:00pm 11.5 8.3 3.0 56 3.8 NNW 9 19 5 10 1023.0 1023.3 0.0
30/01:30pm 11.8 8.4 3.8 58 3.6 NW 11 19 6 10 1023.3 1023.7 0.0
30/01:00pm 10.7 8.0 3.7 62 3.1 NNW 7 13 4 7 1024.0 1024.3 0.0
30/12:30pm 10.9 8.8 3.7 61 3.2 N 4 7 2 4 1024.3 1024.6 0.0
30/12:00pm 10.4 7.7 3.9 64 2.9 ENE 7 13 4 7 1024.7 1025.0 0.0
30/11:30am 10.3 7.5 3.1 61 3.2 NE 7 13 4 7 1025.0 1025.3 0.0
30/11:00am 10.6 7.7 2.7 58 3.5 NE 7 15 4 8 1025.3 1025.6 0.0
30/10:30am 10.0 6.4 3.1 62 3.0 ENE 11 17 6 9 1025.5 1025.8 0.0
30/10:00am 9.3 4.6 2.9 64 2.8 ENE 17 22 9 12 1025.6 1025.9 0.0
30/09:30am 8.7 3.6 2.9 67 2.5 ENE 19 24 10 13 1025.7 1026.1 0.0
30/09:00am 8.1 4.1 2.8 69 2.3 NE 13 19 7 10 1025.7 1026.1 0.0
30/08:30am 7.3 2.5 2.4 71 2.1 ENE 17 22 9 12 1025.7 1026.1 0.0
30/08:00am 6.7 1.8 2.2 73 1.9 NE 17 22 9 12 1025.7 1026.1 0.0
30/07:30am 5.9 1.0 2.0 76 1.6 NE 17 22 9 12 1025.7 1026.1 0.0
30/07:00am 5.5 0.9 1.8 77 1.5 NE 15 22 8 12 1025.7 1026.1 0.0
30/06:30am 5.2 0.3 1.9 79 1.3 ENE 17 20 9 11 1025.5 1025.8 0.0
30/06:00am 4.7 -0.6 1.6 80 1.2 ENE 19 24 10 13 1025.2 1025.5 0.0
30/05:30am 5.0 -0.3 1.8 80 1.3 ENE 19 26 10 14 1025.1 1025.4 0.0
30/05:00am 5.0 -0.5 2.0 81 1.2 ENE 20 28 11 15 1025.0 1025.3 0.0
30/04:30am 5.1 -0.4 2.1 81 1.2 ENE 20 28 11 15 1024.8 1025.1 0.0
30/04:00am 5.3 -0.1 2.3 81 1.2 ENE 20 28 11 15 1025.0 1025.3 0.0
30/03:30am 5.4 0.9 2.4 81 1.2 NE 15 24 8 13 1025.2 1025.5 0.0
30/03:00am 5.8 0.4 2.6 80 1.3 ENE 20 30 11 16 1025.5 1025.8 0.0
30/02:30am 5.8 0.4 2.4 79 1.4 ENE 20 28 11 15 1025.8 1026.2 0.0
30/02:00am 5.9 1.5 2.9 81 1.3 ENE 15 22 8 12 1026.2 1026.6 0.0
30/01:30am 6.0 1.4 3.8 86 0.9 ENE 17 22 9 12 1026.6 1026.9 0.0
30/01:00am 5.7 0.6 3.2 84 1.1 ENE 19 22 10 12 1026.8 1027.1 0.0
30/12:30am 5.5 2.0 3.7 88 0.8 E 11 15 6 8 1026.9 1027.2 0.0
30/12:00am 5.9 2.0 3.4 84 1.1 ESE 13 17 7 9 1026.9 1027.2 0.0
 
Date/Time
CST
Temp
°C
App
Temp
°C
Dew
Point
Rel
Hum
%
Delta-T
°C
Wind Press
QNH
hPa
Press
MSL
hPa
Rain
since 9 am
mm
Dir
 
Spd
km/h
Gust
km/h
Spd
kts
Gust
kts
29/11:30pm 6.0 2.4 2.8 80 1.3 ESE 11 15 6 8 1027.1 1027.4 0.0
29/11:00pm 5.8 1.8 2.6 80 1.3 ESE 13 17 7 9 1027.1 1027.4 0.0
29/10:30pm 5.8 1.8 2.6 80 1.3 ESE 13 15 7 8 1027.3 1027.6 0.0
29/10:00pm 5.8 2.2 2.8 81 1.3 ESE 11 15 6 8 1027.5 1027.8 0.0
29/09:30pm 6.1 2.1 2.9 80 1.3 ESE 13 17 7 9 1027.5 1027.8 0.0
29/09:00pm 6.0 2.0 2.6 79 1.4 ESE 13 17 7 9 1027.6 1027.9 0.0
29/08:30pm 6.2 1.8 2.5 77 1.5 ESE 15 20 8 11 1027.4 1027.7 0.0
29/08:00pm 5.9 1.8 2.2 77 1.5 ESE 13 17 7 9 1027.3 1027.6 0.0

Other Formats:

Comma delimited format used in spreadsheet applications
http://www.bom.gov.au/fwo/IDS60801/IDS60801.94811.axf

JavaScript Object Notation format (JSON) in row-major order
http://www.bom.gov.au/fwo/IDS60801/IDS60801.94811.json